sensor_id;sensor_type;location;lat;lon;timestamp;temperature;humidity
42145;DHT22;27813;43.516;11.890;2023-02-23T00:03:57;8.40;87.10
42145;DHT22;27813;43.516;11.890;2023-02-23T00:08:01;8.40;87.10
42145;DHT22;27813;43.516;11.890;2023-02-23T00:12:06;8.40;87.10
42145;DHT22;27813;43.516;11.890;2023-02-23T00:16:11;8.40;87.20
42145;DHT22;27813;43.516;11.890;2023-02-23T00:20:16;8.40;87.20
42145;DHT22;27813;43.516;11.890;2023-02-23T00:24:27;8.40;87.10
42145;DHT22;27813;43.516;11.890;2023-02-23T00:28:32;8.40;87.20
42145;DHT22;27813;43.516;11.890;2023-02-23T05:34:37;7.50;93.40
42145;DHT22;27813;43.516;11.890;2023-02-23T05:38:42;7.30;93.10
42145;DHT22;27813;43.516;11.890;2023-02-23T05:42:48;7.10;93.00
42145;DHT22;27813;43.516;11.890;2023-02-23T05:46:52;7.00;93.00
42145;DHT22;27813;43.516;11.890;2023-02-23T05:51:01;6.90;93.30
42145;DHT22;27813;43.516;11.890;2023-02-23T05:55:06;6.90;93.60
42145;DHT22;27813;43.516;11.890;2023-02-23T05:59:11;6.90;93.80
42145;DHT22;27813;43.516;11.890;2023-02-23T06:03:16;6.80;93.70
42145;DHT22;27813;43.516;11.890;2023-02-23T06:07:21;6.80;94.00
42145;DHT22;27813;43.516;11.890;2023-02-23T06:11:25;6.90;94.30
42145;DHT22;27813;43.516;11.890;2023-02-23T06:15:29;7.00;94.40
42145;DHT22;27813;43.516;11.890;2023-02-23T06:19:34;7.20;94.40
42145;DHT22;27813;43.516;11.890;2023-02-23T06:23:38;7.30;94.10
42145;DHT22;27813;43.516;11.890;2023-02-23T06:27:45;7.30;93.90
42145;DHT22;27813;43.516;11.890;2023-02-23T06:31:50;7.30;94.10
42145;DHT22;27813;43.516;11.890;2023-02-23T06:35:54;7.40;94.30
42145;DHT22;27813;43.516;11.890;2023-02-23T06:39:59;7.40;94.30
42145;DHT22;27813;43.516;11.890;2023-02-23T06:44:03;7.50;94.30
42145;DHT22;27813;43.516;11.890;2023-02-23T06:48:07;7.60;94.20
42145;DHT22;27813;43.516;11.890;2023-02-23T06:52:12;7.80;94.20
42145;DHT22;27813;43.516;11.890;2023-02-23T06:56:16;7.90;94.20
42145;DHT22;27813;43.516;11.890;2023-02-23T07:00:21;8.00;94.10
42145;DHT22;27813;43.516;11.890;2023-02-23T07:04:25;8.10;94.00
42145;DHT22;27813;43.516;11.890;2023-02-23T07:08:29;8.40;94.00
42145;DHT22;27813;43.516;11.890;2023-02-23T07:12:33;8.60;93.90
42145;DHT22;27813;43.516;11.890;2023-02-23T07:16:37;8.90;93.80
42145;DHT22;27813;43.516;11.890;2023-02-23T07:20:42;9.20;93.40
42145;DHT22;27813;43.516;11.890;2023-02-23T07:24:47;9.30;92.90
42145;DHT22;27813;43.516;11.890;2023-02-23T07:28:51;9.30;92.80
42145;DHT22;27813;43.516;11.890;2023-02-23T07:32:56;9.30;93.00
42145;DHT22;27813;43.516;11.890;2023-02-23T07:37:00;9.30;93.20
42145;DHT22;27813;43.516;11.890;2023-02-23T07:41:05;9.40;93.20
42145;DHT22;27813;43.516;11.890;2023-02-23T07:45:09;9.40;93.40
42145;DHT22;27813;43.516;11.890;2023-02-23T07:49:13;9.60;93.40
42145;DHT22;27813;43.516;11.890;2023-02-23T07:53:17;9.90;93.50
42145;DHT22;27813;43.516;11.890;2023-02-23T07:57:21;10.30;93.20
42145;DHT22;27813;43.516;11.890;2023-02-23T08:01:27;10.70;92.80
42145;DHT22;27813;43.516;11.890;2023-02-23T08:05:31;11.00;92.40
42145;DHT22;27813;43.516;11.890;2023-02-23T08:09:35;11.30;92.20
42145;DHT22;27813;43.516;11.890;2023-02-23T08:13:40;11.60;91.90
42145;DHT22;27813;43.516;11.890;2023-02-23T08:17:44;11.70;91.50
42145;DHT22;27813;43.516;11.890;2023-02-23T08:21:49;11.60;91.30
42145;DHT22;27813;43.516;11.890;2023-02-23T08:25:53;11.40;91.40
42145;DHT22;27813;43.516;11.890;2023-02-23T08:29:57;11.30;91.70
42145;DHT22;27813;43.516;11.890;2023-02-23T08:34:04;11.10;92.20
42145;DHT22;27813;43.516;11.890;2023-02-23T08:38:08;11.40;92.70
42145;DHT22;27813;43.516;11.890;2023-02-23T08:42:13;11.70;92.60
42145;DHT22;27813;43.516;11.890;2023-02-23T08:46:17;12.10;92.20
42145;DHT22;27813;43.516;11.890;2023-02-23T08:50:22;12.40;91.80
42145;DHT22;27813;43.516;11.890;2023-02-23T08:54:31;12.70;91.30
42145;DHT22;27813;43.516;11.890;2023-02-23T08:58:36;12.70;91.10
42145;DHT22;27813;43.516;11.890;2023-02-23T09:02:41;12.70;91.20
42145;DHT22;27813;43.516;11.890;2023-02-23T09:06:46;12.80;91.30
42145;DHT22;27813;43.516;11.890;2023-02-23T09:10:50;13.00;91.30
42145;DHT22;27813;43.516;11.890;2023-02-23T09:14:55;13.30;91.10
42145;DHT22;27813;43.516;11.890;2023-02-23T09:19:00;13.60;90.80
42145;DHT22;27813;43.516;11.890;2023-02-23T09:23:04;13.80;90.40
42145;DHT22;27813;43.516;11.890;2023-02-23T09:27:08;13.70;90.00
42145;DHT22;27813;43.516;11.890;2023-02-23T09:31:20;13.70;90.10
42145;DHT22;27813;43.516;11.890;2023-02-23T09:35:26;13.90;90.30
42145;DHT22;27813;43.516;11.890;2023-02-23T09:39:30;14.00;90.10
42145;DHT22;27813;43.516;11.890;2023-02-23T09:43:49;14.20;89.90
42145;DHT22;27813;43.516;11.890;2023-02-23T09:48:13;14.40;89.90
42145;DHT22;27813;43.516;11.890;2023-02-23T09:52:26;14.40;89.70
42145;DHT22;27813;43.516;11.890;2023-02-23T09:56:39;14.50;89.60
42145;DHT22;27813;43.516;11.890;2023-02-23T10:05:14;14.50;89.10
42145;DHT22;27813;43.516;11.890;2023-02-23T10:09:27;14.50;88.90
42145;DHT22;27813;43.516;11.890;2023-02-23T10:13:50;14.30;89.00
42145;DHT22;27813;43.516;11.890;2023-02-23T10:22:23;14.30;89.50
42145;DHT22;27813;43.516;11.890;2023-02-23T10:27:07;14.50;89.60
42145;DHT22;27813;43.516;11.890;2023-02-23T10:31:25;14.90;89.40
42145;DHT22;27813;43.516;11.890;2023-02-23T10:35:30;15.40;88.70
42145;DHT22;27813;43.516;11.890;2023-02-23T10:39:36;15.90;88.00
42145;DHT22;27813;43.516;11.890;2023-02-23T10:43:40;16.30;87.20
42145;DHT22;27813;43.516;11.890;2023-02-23T10:47:45;16.60;86.30
42145;DHT22;27813;43.516;11.890;2023-02-23T10:51:49;17.00;85.60
42145;DHT22;27813;43.516;11.890;2023-02-23T10:56:02;17.20;84.80
42145;DHT22;27813;43.516;11.890;2023-02-23T11:04:26;17.60;83.80
42145;DHT22;27813;43.516;11.890;2023-02-23T11:08:37;17.90;83.40
42145;DHT22;27813;43.516;11.890;2023-02-23T11:12:43;18.00;82.70
42145;DHT22;27813;43.516;11.890;2023-02-23T11:16:48;18.00;82.50
42145;DHT22;27813;43.516;11.890;2023-02-23T11:20:54;18.20;81.90
42145;DHT22;27813;43.516;11.890;2023-02-23T11:25:00;18.20;81.30
42145;DHT22;27813;43.516;11.890;2023-02-23T11:33:29;17.80;81.10
42145;DHT22;27813;43.516;11.890;2023-02-23T11:37:39;17.80;81.50
42145;DHT22;27813;43.516;11.890;2023-02-23T11:41:45;17.90;81.30
42145;DHT22;27813;43.516;11.890;2023-02-23T11:45:52;18.10;80.90
42145;DHT22;27813;43.516;11.890;2023-02-23T11:49:57;18.20;80.30
42145;DHT22;27813;43.516;11.890;2023-02-23T11:54:03;18.30;80.00
42145;DHT22;27813;43.516;11.890;2023-02-23T11:58:24;18.40;79.40
42145;DHT22;27813;43.516;11.890;2023-02-23T12:02:31;18.50;79.30
42145;DHT22;27813;43.516;11.890;2023-02-23T12:06:38;18.40;78.70
42145;DHT22;27813;43.516;11.890;2023-02-23T12:10:58;18.40;78.80
42145;DHT22;27813;43.516;11.890;2023-02-23T12:19:43;18.50;78.20
42145;DHT22;27813;43.516;11.890;2023-02-23T12:23:58;18.40;78.10
42145;DHT22;27813;43.516;11.890;2023-02-23T12:28:41;18.30;78.20
42145;DHT22;27813;43.516;11.890;2023-02-23T12:33:08;18.20;78.00
42145;DHT22;27813;43.516;11.890;2023-02-23T12:37:28;18.20;78.20
42145;DHT22;27813;43.516;11.890;2023-02-23T12:46:29;18.00;78.20
42145;DHT22;27813;43.516;11.890;2023-02-23T12:50:41;18.00;78.40
42145;DHT22;27813;43.516;11.890;2023-02-23T12:54:49;17.90;78.30
42145;DHT22;27813;43.516;11.890;2023-02-23T12:59:20;17.70;78.40
42145;DHT22;27813;43.516;11.890;2023-02-23T13:03:58;17.70;78.60
42145;DHT22;27813;43.516;11.890;2023-02-23T13:17:06;17.40;78.30
42145;DHT22;27813;43.516;11.890;2023-02-23T13:29:44;16.30;79.70
42145;DHT22;27813;43.516;11.890;2023-02-23T13:33:54;15.90;80.20
42145;DHT22;27813;43.516;11.890;2023-02-23T13:42:35;15.40;81.40
42145;DHT22;27813;43.516;11.890;2023-02-23T13:59:51;15.00;82.10
42145;DHT22;27813;43.516;11.890;2023-02-23T14:04:13;14.90;82.10
42145;DHT22;27813;43.516;11.890;2023-02-23T14:08:24;14.80;82.10
42145;DHT22;27813;43.516;11.890;2023-02-23T14:12:42;14.80;82.10
42145;DHT22;27813;43.516;11.890;2023-02-23T14:30:21;14.50;82.10
42145;DHT22;27813;43.516;11.890;2023-02-23T14:35:34;14.50;82.20
42145;DHT22;27813;43.516;11.890;2023-02-23T14:39:26;14.40;82.30
42145;DHT22;27813;43.516;11.890;2023-02-23T14:47:48;14.30;82.30
42145;DHT22;27813;43.516;11.890;2023-02-23T14:51:56;14.20;82.40
42145;DHT22;27813;43.516;11.890;2023-02-23T14:56:04;14.20;82.50
42145;DHT22;27813;43.516;11.890;2023-02-23T15:00:25;14.10;82.60
42145;DHT22;27813;43.516;11.890;2023-02-23T15:04:29;14.10;82.70
42145;DHT22;27813;43.516;11.890;2023-02-23T15:08:34;14.00;82.70
42145;DHT22;27813;43.516;11.890;2023-02-23T15:12:43;14.00;82.80
42145;DHT22;27813;43.516;11.890;2023-02-23T15:16:49;14.00;83.00
42145;DHT22;27813;43.516;11.890;2023-02-23T15:20:54;13.90;83.00
42145;DHT22;27813;43.516;11.890;2023-02-23T15:25:00;13.80;83.00
42145;DHT22;27813;43.516;11.890;2023-02-23T15:29:13;13.60;83.00
42145;DHT22;27813;43.516;11.890;2023-02-23T15:33:18;13.50;83.10
42145;DHT22;27813;43.516;11.890;2023-02-23T15:37:43;13.50;83.10
42145;DHT22;27813;43.516;11.890;2023-02-23T15:41:59;13.30;83.20
42145;DHT22;27813;43.516;11.890;2023-02-23T15:46:05;13.10;83.50
42145;DHT22;27813;43.516;11.890;2023-02-23T15:50:20;13.00;83.60
42145;DHT22;27813;43.516;11.890;2023-02-23T15:54:54;12.70;83.90
42145;DHT22;27813;43.516;11.890;2023-02-23T15:59:12;12.50;84.10
42145;DHT22;27813;43.516;11.890;2023-02-23T16:03:27;12.40;84.40
42145;DHT22;27813;43.516;11.890;2023-02-23T16:07:40;12.20;84.60
42145;DHT22;27813;43.516;11.890;2023-02-23T16:16:05;12.00;85.10
42145;DHT22;27813;43.516;11.890;2023-02-23T16:20:39;11.70;85.40
42145;DHT22;27813;43.516;11.890;2023-02-23T16:24:57;11.50;85.60
42145;DHT22;27813;43.516;11.890;2023-02-23T16:29:03;11.40;85.90
42145;DHT22;27813;43.516;11.890;2023-02-23T16:33:26;11.20;86.10
42145;DHT22;27813;43.516;11.890;2023-02-23T16:37:31;11.00;86.30
42145;DHT22;27813;43.516;11.890;2023-02-23T16:41:36;10.90;86.40
42145;DHT22;27813;43.516;11.890;2023-02-23T16:45:41;10.60;86.50
42145;DHT22;27813;43.516;11.890;2023-02-23T16:49:45;10.40;86.80
42145;DHT22;27813;43.516;11.890;2023-02-23T16:53:50;10.20;87.20
42145;DHT22;27813;43.516;11.890;2023-02-23T16:58:01;10.10;87.30
42145;DHT22;27813;43.516;11.890;2023-02-23T17:02:09;9.90;87.50
42145;DHT22;27813;43.516;11.890;2023-02-23T17:06:16;9.70;87.70
42145;DHT22;27813;43.516;11.890;2023-02-23T17:10:24;9.50;88.10
42145;DHT22;27813;43.516;11.890;2023-02-23T17:14:28;9.40;88.10
42145;DHT22;27813;43.516;11.890;2023-02-23T17:18:36;9.30;88.20
42145;DHT22;27813;43.516;11.890;2023-02-23T17:22:47;9.10;88.40
42145;DHT22;27813;43.516;11.890;2023-02-23T17:26:53;8.90;88.70
42145;DHT22;27813;43.516;11.890;2023-02-23T17:31:01;8.80;88.90
42145;DHT22;27813;43.516;11.890;2023-02-23T17:35:05;8.60;89.30
42145;DHT22;27813;43.516;11.890;2023-02-23T17:39:10;8.50;89.30
42145;DHT22;27813;43.516;11.890;2023-02-23T17:43:16;8.40;89.30
42145;DHT22;27813;43.516;11.890;2023-02-23T17:47:26;8.20;89.40
42145;DHT22;27813;43.516;11.890;2023-02-23T17:51:30;8.10;89.30
42145;DHT22;27813;43.516;11.890;2023-02-23T17:55:34;7.90;89.50
42145;DHT22;27813;43.516;11.890;2023-02-23T17:59:39;7.90;89.80
42145;DHT22;27813;43.516;11.890;2023-02-23T18:03:43;7.80;90.00
42145;DHT22;27813;43.516;11.890;2023-02-23T18:07:48;7.80;90.00
42145;DHT22;27813;43.516;11.890;2023-02-23T18:11:52;7.80;89.90
42145;DHT22;27813;43.516;11.890;2023-02-23T18:16:03;7.70;89.90
42145;DHT22;27813;43.516;11.890;2023-02-23T18:20:09;7.50;89.80
42145;DHT22;27813;43.516;11.890;2023-02-23T18:24:18;7.40;89.70
42145;DHT22;27813;43.516;11.890;2023-02-23T18:28:24;7.20;89.60
42145;DHT22;27813;43.516;11.890;2023-02-23T18:32:29;7.10;89.70
42145;DHT22;27813;43.516;11.890;2023-02-23T18:36:36;7.00;90.00
42145;DHT22;27813;43.516;11.890;2023-02-23T18:40:47;6.90;89.80
42145;DHT22;27813;43.516;11.890;2023-02-23T18:44:53;6.80;90.10
42145;DHT22;27813;43.516;11.890;2023-02-23T18:48:57;6.70;90.10
42145;DHT22;27813;43.516;11.890;2023-02-23T18:53:08;6.60;90.00
42145;DHT22;27813;43.516;11.890;2023-02-23T18:57:13;6.40;90.00
42145;DHT22;27813;43.516;11.890;2023-02-23T19:01:23;6.40;90.60
42145;DHT22;27813;43.516;11.890;2023-02-23T19:05:31;6.40;90.40
42145;DHT22;27813;43.516;11.890;2023-02-23T19:09:36;6.20;90.10
42145;DHT22;27813;43.516;11.890;2023-02-23T19:13:44;6.10;89.90
42145;DHT22;27813;43.516;11.890;2023-02-23T19:17:50;6.00;90.20
42145;DHT22;27813;43.516;11.890;2023-02-23T19:21:59;6.00;90.50
42145;DHT22;27813;43.516;11.890;2023-02-23T19:26:10;6.00;90.40
42145;DHT22;27813;43.516;11.890;2023-02-23T19:30:17;5.90;90.30
42145;DHT22;27813;43.516;11.890;2023-02-23T19:34:27;5.90;90.70
42145;DHT22;27813;43.516;11.890;2023-02-23T19:38:32;5.90;90.80
42145;DHT22;27813;43.516;11.890;2023-02-23T19:42:36;5.80;90.40
42145;DHT22;27813;43.516;11.890;2023-02-23T19:46:54;5.70;90.60
42145;DHT22;27813;43.516;11.890;2023-02-23T19:50:59;5.60;90.70
42145;DHT22;27813;43.516;11.890;2023-02-23T19:55:07;5.60;90.90
42145;DHT22;27813;43.516;11.890;2023-02-23T19:59:22;5.50;90.70
42145;DHT22;27813;43.516;11.890;2023-02-23T20:03:30;5.40;90.60
42145;DHT22;27813;43.516;11.890;2023-02-23T20:07:35;5.30;90.40
42145;DHT22;27813;43.516;11.890;2023-02-23T20:11:39;5.20;90.50
42145;DHT22;27813;43.516;11.890;2023-02-23T20:15:45;5.10;90.70
42145;DHT22;27813;43.516;11.890;2023-02-23T20:19:54;5.10;91.00
42145;DHT22;27813;43.516;11.890;2023-02-23T20:24:05;5.10;90.80
42145;DHT22;27813;43.516;11.890;2023-02-23T20:28:13;5.00;91.00
42145;DHT22;27813;43.516;11.890;2023-02-23T20:32:21;5.00;91.20
42145;DHT22;27813;43.516;11.890;2023-02-23T20:36:28;4.90;91.00
42145;DHT22;27813;43.516;11.890;2023-02-23T20:40:36;4.90;90.90
42145;DHT22;27813;43.516;11.890;2023-02-23T20:45:03;4.80;90.80
42145;DHT22;27813;43.516;11.890;2023-02-23T20:49:30;4.80;91.00
42145;DHT22;27813;43.516;11.890;2023-02-23T20:53:41;4.80;91.20
42145;DHT22;27813;43.516;11.890;2023-02-23T20:57:53;4.80;91.40
42145;DHT22;27813;43.516;11.890;2023-02-23T21:02:05;4.80;91.30
42145;DHT22;27813;43.516;11.890;2023-02-23T21:06:12;4.80;91.30
42145;DHT22;27813;43.516;11.890;2023-02-23T21:10:17;4.70;91.10
42145;DHT22;27813;43.516;11.890;2023-02-23T21:14:23;4.60;91.30
42145;DHT22;27813;43.516;11.890;2023-02-23T21:18:31;4.50;91.40
42145;DHT22;27813;43.516;11.890;2023-02-23T21:22:37;4.40;91.00
42145;DHT22;27813;43.516;11.890;2023-02-23T21:26:42;4.30;90.90
42145;DHT22;27813;43.516;11.890;2023-02-23T21:30:52;4.30;91.00
42145;DHT22;27813;43.516;11.890;2023-02-23T21:34:56;4.20;91.10
42145;DHT22;27813;43.516;11.890;2023-02-23T21:39:06;4.20;90.90
42145;DHT22;27813;43.516;11.890;2023-02-23T21:43:15;4.20;90.80
42145;DHT22;27813;43.516;11.890;2023-02-23T21:47:26;4.10;90.90
42145;DHT22;27813;43.516;11.890;2023-02-23T21:51:31;4.10;91.00
42145;DHT22;27813;43.516;11.890;2023-02-23T21:55:37;4.10;91.40
42145;DHT22;27813;43.516;11.890;2023-02-23T21:59:43;4.10;91.50
42145;DHT22;27813;43.516;11.890;2023-02-23T22:03:48;4.10;91.40
42145;DHT22;27813;43.516;11.890;2023-02-23T22:07:54;4.10;91.30
42145;DHT22;27813;43.516;11.890;2023-02-23T22:11:58;4.00;91.20
42145;DHT22;27813;43.516;11.890;2023-02-23T22:16:07;4.00;91.00
42145;DHT22;27813;43.516;11.890;2023-02-23T22:20:12;4.00;91.00
42145;DHT22;27813;43.516;11.890;2023-02-23T22:24:16;3.90;91.00
42145;DHT22;27813;43.516;11.890;2023-02-23T22:28:24;3.90;91.10
42145;DHT22;27813;43.516;11.890;2023-02-23T22:32:29;3.90;91.20
42145;DHT22;27813;43.516;11.890;2023-02-23T22:36:36;3.80;91.10
42145;DHT22;27813;43.516;11.890;2023-02-23T22:40:45;3.80;91.20
42145;DHT22;27813;43.516;11.890;2023-02-23T22:44:54;3.70;91.40
42145;DHT22;27813;43.516;11.890;2023-02-23T22:48:59;3.70;91.40
42145;DHT22;27813;43.516;11.890;2023-02-23T22:53:06;3.60;91.30
42145;DHT22;27813;43.516;11.890;2023-02-23T22:57:11;3.60;91.30
42145;DHT22;27813;43.516;11.890;2023-02-23T23:01:15;3.50;91.20
42145;DHT22;27813;43.516;11.890;2023-02-23T23:05:21;3.60;91.40
42145;DHT22;27813;43.516;11.890;2023-02-23T23:09:31;3.60;91.30
42145;DHT22;27813;43.516;11.890;2023-02-23T23:13:46;3.50;91.00
42145;DHT22;27813;43.516;11.890;2023-02-23T23:17:51;3.40;91.10
42145;DHT22;27813;43.516;11.890;2023-02-23T23:21:55;3.40;91.30
42145;DHT22;27813;43.516;11.890;2023-02-23T23:25:59;3.40;91.70
42145;DHT22;27813;43.516;11.890;2023-02-23T23:30:04;3.50;91.80
42145;DHT22;27813;43.516;11.890;2023-02-23T23:34:10;3.60;91.90
42145;DHT22;27813;43.516;11.890;2023-02-23T23:38:15;3.70;91.90
42145;DHT22;27813;43.516;11.890;2023-02-23T23:42:20;3.70;91.80
42145;DHT22;27813;43.516;11.890;2023-02-23T23:46:29;3.70;91.60
42145;DHT22;27813;43.516;11.890;2023-02-23T23:50:34;3.60;91.60
42145;DHT22;27813;43.516;11.890;2023-02-23T23:54:38;3.50;91.50
42145;DHT22;27813;43.516;11.890;2023-02-23T23:58:44;3.40;91.40
